sensor_id;sensor_type;location;lat;lon;timestamp;pressure;altitude;pressure_sealevel;temperature;humidity
66547;BME280;53400;50.364;14.874;2023-05-11T00:00:33;98455.56;;;12.43;73.00
66547;BME280;53400;50.364;14.874;2023-05-11T00:03:12;98461.66;;;12.28;73.74
66547;BME280;53400;50.364;14.874;2023-05-11T00:05:38;98463.38;;;12.45;73.18
66547;BME280;53400;50.364;14.874;2023-05-11T00:08:05;98459.22;;;12.22;74.58
66547;BME280;53400;50.364;14.874;2023-05-11T00:10:31;98465.00;;;12.46;73.59
66547;BME280;53400;50.364;14.874;2023-05-11T00:12:57;98462.03;;;12.47;73.58
66547;BME280;53400;50.364;14.874;2023-05-11T00:15:23;98462.97;;;12.21;74.30
66547;BME280;53400;50.364;14.874;2023-05-11T00:17:49;98463.69;;;12.48;73.30
66547;BME280;53400;50.364;14.874;2023-05-11T00:20:15;98470.28;;;12.30;74.19
66547;BME280;53400;50.364;14.874;2023-05-11T00:22:41;98462.88;;;12.48;72.99
66547;BME280;53400;50.364;14.874;2023-05-11T00:25:09;98465.56;;;12.53;73.13
66547;BME280;53400;50.364;14.874;2023-05-11T00:27:35;98461.84;;;12.64;72.53
66547;BME280;53400;50.364;14.874;2023-05-11T00:30:01;98464.25;;;12.60;72.24
66547;BME280;53400;50.364;14.874;2023-05-11T00:32:27;98460.59;;;12.29;74.44
66547;BME280;53400;50.364;14.874;2023-05-11T00:34:52;98461.72;;;12.38;73.98
66547;BME280;53400;50.364;14.874;2023-05-11T00:37:19;98461.72;;;12.33;74.23
66547;BME280;53400;50.364;14.874;2023-05-11T00:39:44;98455.13;;;12.14;75.35
66547;BME280;53400;50.364;14.874;2023-05-11T00:42:12;98456.41;;;11.69;77.29
66547;BME280;53400;50.364;14.874;2023-05-11T00:44:38;98460.59;;;11.87;76.75
66547;BME280;53400;50.364;14.874;2023-05-11T00:47:04;98453.72;;;12.01;76.22
66547;BME280;53400;50.364;14.874;2023-05-11T00:49:30;98462.88;;;12.05;75.99
66547;BME280;53400;50.364;14.874;2023-05-11T00:52:06;98461.81;;;12.06;76.04
66547;BME280;53400;50.364;14.874;2023-05-11T00:54:33;98460.09;;;11.95;76.55
66547;BME280;53400;50.364;14.874;2023-05-11T00:57:00;98458.84;;;12.03;76.41
66547;BME280;53400;50.364;14.874;2023-05-11T00:59:28;98464.50;;;12.06;76.08
66547;BME280;53400;50.364;14.874;2023-05-11T01:01:55;98460.72;;;12.07;75.77
66547;BME280;53400;50.364;14.874;2023-05-11T01:04:21;98468.03;;;12.17;75.47
66547;BME280;53400;50.364;14.874;2023-05-11T01:06:53;98463.16;;;12.09;75.59
66547;BME280;53400;50.364;14.874;2023-05-11T01:09:29;98464.06;;;12.25;74.87
66547;BME280;53400;50.364;14.874;2023-05-11T01:12:06;98461.34;;;12.20;75.08
66547;BME280;53400;50.364;14.874;2023-05-11T01:14:39;98464.63;;;12.32;74.26
66547;BME280;53400;50.364;14.874;2023-05-11T01:17:09;98466.28;;;12.33;74.19
66547;BME280;53400;50.364;14.874;2023-05-11T01:19:45;98465.84;;;12.09;75.32
66547;BME280;53400;50.364;14.874;2023-05-11T01:22:27;98466.22;;;11.85;75.96
66547;BME280;53400;50.364;14.874;2023-05-11T01:25:05;98462.00;;;11.94;75.91
66547;BME280;53400;50.364;14.874;2023-05-11T01:27:55;98463.13;;;11.71;76.87
66547;BME280;53400;50.364;14.874;2023-05-11T01:30:33;98469.31;;;11.72;76.91
66547;BME280;53400;50.364;14.874;2023-05-11T01:33:05;98466.03;;;11.38;78.51
66547;BME280;53400;50.364;14.874;2023-05-11T01:35:34;98472.66;;;11.57;77.61
66547;BME280;53400;50.364;14.874;2023-05-11T01:38:05;98471.78;;;11.79;76.70
66547;BME280;53400;50.364;14.874;2023-05-11T01:40:32;98466.13;;;11.75;76.82
66547;BME280;53400;50.364;14.874;2023-05-11T01:43:03;98474.19;;;11.80;76.41
66547;BME280;53400;50.364;14.874;2023-05-11T01:45:38;98468.53;;;11.77;76.42
66547;BME280;53400;50.364;14.874;2023-05-11T01:48:08;98478.63;;;11.64;77.60
66547;BME280;53400;50.364;14.874;2023-05-11T01:50:36;98473.69;;;11.51;77.39
66547;BME280;53400;50.364;14.874;2023-05-11T01:53:04;98480.56;;;11.15;79.55
66547;BME280;53400;50.364;14.874;2023-05-11T01:55:33;98474.28;;;11.31;78.92
66547;BME280;53400;50.364;14.874;2023-05-11T01:58:01;98469.44;;;11.28;79.26
66547;BME280;53400;50.364;14.874;2023-05-11T02:00:30;98481.00;;;11.07;79.74
66547;BME280;53400;50.364;14.874;2023-05-11T02:02:58;98477.81;;;11.10;80.09
66547;BME280;53400;50.364;14.874;2023-05-11T02:05:27;98478.75;;;10.98;80.46
66547;BME280;53400;50.364;14.874;2023-05-11T02:07:54;98481.56;;;11.09;79.92
66547;BME280;53400;50.364;14.874;2023-05-11T02:10:24;98481.31;;;11.10;80.08
66547;BME280;53400;50.364;14.874;2023-05-11T02:12:51;98485.38;;;10.91;80.86
66547;BME280;53400;50.364;14.874;2023-05-11T02:15:18;98488.75;;;10.81;81.67
66547;BME280;53400;50.364;14.874;2023-05-11T02:17:49;98484.50;;;10.85;81.52
66547;BME280;53400;50.364;14.874;2023-05-11T02:20:16;98490.13;;;11.06;79.88
66547;BME280;53400;50.364;14.874;2023-05-11T02:22:44;98478.03;;;11.03;80.30
66547;BME280;53400;50.364;14.874;2023-05-11T02:25:11;98487.16;;;11.07;80.28
66547;BME280;53400;50.364;14.874;2023-05-11T02:27:38;98487.22;;;11.12;79.66
66547;BME280;53400;50.364;14.874;2023-05-11T02:30:05;98489.50;;;11.25;79.39
66547;BME280;53400;50.364;14.874;2023-05-11T02:32:36;98481.63;;;11.14;79.88
66547;BME280;53400;50.364;14.874;2023-05-11T02:35:07;98485.56;;;11.06;80.19
66547;BME280;53400;50.364;14.874;2023-05-11T02:37:40;98484.75;;;11.06;80.53
66547;BME280;53400;50.364;14.874;2023-05-11T02:40:12;98488.06;;;10.91;81.17
66547;BME280;53400;50.364;14.874;2023-05-11T02:42:41;98488.34;;;11.16;80.07
66547;BME280;53400;50.364;14.874;2023-05-11T02:45:10;98485.28;;;11.30;79.45
66547;BME280;53400;50.364;14.874;2023-05-11T02:47:41;98488.25;;;11.06;80.34
66547;BME280;53400;50.364;14.874;2023-05-11T02:50:10;98489.53;;;11.03;80.76
66547;BME280;53400;50.364;14.874;2023-05-11T02:52:40;98493.22;;;10.97;81.15
66547;BME280;53400;50.364;14.874;2023-05-11T02:55:08;98496.72;;;10.98;81.39
66547;BME280;53400;50.364;14.874;2023-05-11T02:57:35;98487.63;;;10.99;81.38
66547;BME280;53400;50.364;14.874;2023-05-11T03:00:02;98488.38;;;10.94;81.53
66547;BME280;53400;50.364;14.874;2023-05-11T03:02:28;98493.44;;;10.91;81.54
66547;BME280;53400;50.364;14.874;2023-05-11T03:04:54;98494.53;;;10.95;81.37
66547;BME280;53400;50.364;14.874;2023-05-11T03:07:21;98488.47;;;11.05;81.25
66547;BME280;53400;50.364;14.874;2023-05-11T03:09:47;98491.16;;;11.05;80.96
66547;BME280;53400;50.364;14.874;2023-05-11T03:12:14;98487.53;;;11.16;80.77
66547;BME280;53400;50.364;14.874;2023-05-11T03:14:40;98489.97;;;10.95;81.70
66547;BME280;53400;50.364;14.874;2023-05-11T03:17:08;98490.13;;;11.06;81.99
66547;BME280;53400;50.364;14.874;2023-05-11T03:19:34;98492.28;;;11.09;81.23
66547;BME280;53400;50.364;14.874;2023-05-11T03:22:01;98486.94;;;11.09;81.41
66547;BME280;53400;50.364;14.874;2023-05-11T03:24:30;98496.22;;;11.23;80.63
66547;BME280;53400;50.364;14.874;2023-05-11T03:26:56;98490.63;;;11.02;81.55
66547;BME280;53400;50.364;14.874;2023-05-11T03:29:24;98487.31;;;11.17;80.65
66547;BME280;53400;50.364;14.874;2023-05-11T03:31:50;98486.16;;;11.13;80.70
66547;BME280;53400;50.364;14.874;2023-05-11T03:34:16;98485.44;;;11.18;80.37
66547;BME280;53400;50.364;14.874;2023-05-11T03:36:44;98494.56;;;11.22;80.35
66547;BME280;53400;50.364;14.874;2023-05-11T03:39:11;98492.41;;;11.19;80.66
66547;BME280;53400;50.364;14.874;2023-05-11T03:41:38;98490.06;;;11.28;80.21
66547;BME280;53400;50.364;14.874;2023-05-11T03:44:07;98498.63;;;11.52;79.22
66547;BME280;53400;50.364;14.874;2023-05-11T03:46:36;98495.88;;;11.46;79.52
66547;BME280;53400;50.364;14.874;2023-05-11T03:49:05;98495.94;;;11.52;79.31
66547;BME280;53400;50.364;14.874;2023-05-11T03:51:35;98497.47;;;11.42;80.08
66547;BME280;53400;50.364;14.874;2023-05-11T03:54:01;98494.66;;;11.59;79.65
66547;BME280;53400;50.364;14.874;2023-05-11T03:56:27;98489.50;;;11.53;79.35
66547;BME280;53400;50.364;14.874;2023-05-11T03:58:55;98492.16;;;11.47;79.98
66547;BME280;53400;50.364;14.874;2023-05-11T04:01:21;98491.78;;;11.66;79.38
66547;BME280;53400;50.364;14.874;2023-05-11T04:03:48;98502.47;;;11.61;79.13
66547;BME280;53400;50.364;14.874;2023-05-11T04:06:14;98502.06;;;11.47;79.61
66547;BME280;53400;50.364;14.874;2023-05-11T04:08:40;98496.72;;;11.79;79.24
66547;BME280;53400;50.364;14.874;2023-05-11T04:11:07;98499.97;;;11.81;78.52
66547;BME280;53400;50.364;14.874;2023-05-11T04:13:33;98497.97;;;11.66;79.12
66547;BME280;53400;50.364;14.874;2023-05-11T04:16:00;98497.56;;;11.53;79.70
66547;BME280;53400;50.364;14.874;2023-05-11T04:18:27;98492.19;;;11.53;80.26
66547;BME280;53400;50.364;14.874;2023-05-11T04:20:53;98500.44;;;11.46;80.37
66547;BME280;53400;50.364;14.874;2023-05-11T04:23:19;98504.84;;;11.57;79.99
66547;BME280;53400;50.364;14.874;2023-05-11T04:25:45;98494.66;;;11.59;79.37
66547;BME280;53400;50.364;14.874;2023-05-11T04:28:11;98497.75;;;11.73;79.51
66547;BME280;53400;50.364;14.874;2023-05-11T04:30:37;98493.50;;;11.50;79.91
66547;BME280;53400;50.364;14.874;2023-05-11T04:33:05;98502.75;;;11.64;79.79
66547;BME280;53400;50.364;14.874;2023-05-11T04:35:30;98502.16;;;11.57;79.47
66547;BME280;53400;50.364;14.874;2023-05-11T04:37:56;98502.59;;;11.76;78.72
66547;BME280;53400;50.364;14.874;2023-05-11T04:40:22;98508.69;;;11.66;79.45
66547;BME280;53400;50.364;14.874;2023-05-11T04:42:49;98505.72;;;11.63;79.65
66547;BME280;53400;50.364;14.874;2023-05-11T04:45:15;98502.59;;;11.76;79.54
66547;BME280;53400;50.364;14.874;2023-05-11T04:47:41;98512.22;;;11.72;79.56
66547;BME280;53400;50.364;14.874;2023-05-11T04:50:09;98511.91;;;11.68;79.67
66547;BME280;53400;50.364;14.874;2023-05-11T04:52:35;98509.53;;;11.99;78.68
66547;BME280;53400;50.364;14.874;2023-05-11T04:55:00;98512.47;;;11.98;78.44
66547;BME280;53400;50.364;14.874;2023-05-11T04:57:26;98510.66;;;11.76;79.93
66547;BME280;53400;50.364;14.874;2023-05-11T04:59:52;98515.44;;;11.69;80.03
66547;BME280;53400;50.364;14.874;2023-05-11T05:02:19;98515.97;;;11.71;79.66
66547;BME280;53400;50.364;14.874;2023-05-11T05:04:45;98523.47;;;11.69;79.96
66547;BME280;53400;50.364;14.874;2023-05-11T05:07:12;98522.34;;;11.92;79.43
66547;BME280;53400;50.364;14.874;2023-05-11T05:09:38;98527.47;;;11.93;79.45
66547;BME280;53400;50.364;14.874;2023-05-11T05:12:04;98519.44;;;11.99;78.53
66547;BME280;53400;50.364;14.874;2023-05-11T05:14:31;98520.00;;;12.01;78.94
66547;BME280;53400;50.364;14.874;2023-05-11T05:16:57;98523.88;;;12.15;78.63
66547;BME280;53400;50.364;14.874;2023-05-11T05:19:25;98519.78;;;12.07;79.29
66547;BME280;53400;50.364;14.874;2023-05-11T05:21:51;98520.28;;;12.04;80.02
66547;BME280;53400;50.364;14.874;2023-05-11T05:24:18;98531.66;;;12.16;79.59
66547;BME280;53400;50.364;14.874;2023-05-11T05:26:44;98526.13;;;12.28;78.42
66547;BME280;53400;50.364;14.874;2023-05-11T05:29:10;98532.81;;;12.26;77.31
66547;BME280;53400;50.364;14.874;2023-05-11T05:31:36;98529.50;;;12.13;77.69
66547;BME280;53400;50.364;14.874;2023-05-11T05:34:01;98531.47;;;12.28;76.57
66547;BME280;53400;50.364;14.874;2023-05-11T05:36:28;98538.13;;;12.58;76.44
66547;BME280;53400;50.364;14.874;2023-05-11T05:38:54;98544.25;;;12.48;76.88
66547;BME280;53400;50.364;14.874;2023-05-11T05:41:22;98547.13;;;12.42;76.75
66547;BME280;53400;50.364;14.874;2023-05-11T05:43:48;98541.03;;;12.51;76.42
66547;BME280;53400;50.364;14.874;2023-05-11T05:46:15;98555.84;;;12.54;76.45
66547;BME280;53400;50.364;14.874;2023-05-11T05:48:41;98548.81;;;12.48;76.02
66547;BME280;53400;50.364;14.874;2023-05-11T05:51:07;98554.72;;;12.50;76.72
66547;BME280;53400;50.364;14.874;2023-05-11T05:53:32;98556.88;;;12.48;76.59
66547;BME280;53400;50.364;14.874;2023-05-11T05:55:58;98558.44;;;12.44;77.14
66547;BME280;53400;50.364;14.874;2023-05-11T05:58:26;98552.56;;;12.47;77.22
66547;BME280;53400;50.364;14.874;2023-05-11T06:00:52;98556.13;;;12.62;77.30
66547;BME280;53400;50.364;14.874;2023-05-11T06:03:17;98559.56;;;12.53;76.47
66547;BME280;53400;50.364;14.874;2023-05-11T06:05:44;98551.81;;;12.56;76.55
66547;BME280;53400;50.364;14.874;2023-05-11T06:08:09;98561.84;;;12.71;77.08
66547;BME280;53400;50.364;14.874;2023-05-11T06:10:36;98562.69;;;12.77;75.38
66547;BME280;53400;50.364;14.874;2023-05-11T06:13:02;98555.25;;;12.94;74.33
66547;BME280;53400;50.364;14.874;2023-05-11T06:15:30;98574.59;;;12.96;74.29
66547;BME280;53400;50.364;14.874;2023-05-11T06:17:55;98567.09;;;12.98;74.13
66547;BME280;53400;50.364;14.874;2023-05-11T06:20:21;98575.50;;;13.17;73.96
66547;BME280;53400;50.364;14.874;2023-05-11T06:22:48;98572.00;;;13.12;72.17
66547;BME280;53400;50.364;14.874;2023-05-11T06:25:14;98571.56;;;13.35;71.47
66547;BME280;53400;50.364;14.874;2023-05-11T06:27:40;98571.84;;;13.39;72.09
66547;BME280;53400;50.364;14.874;2023-05-11T06:30:07;98575.13;;;13.66;70.07
66547;BME280;53400;50.364;14.874;2023-05-11T06:32:34;98580.16;;;13.32;70.12
66547;BME280;53400;50.364;14.874;2023-05-11T06:35:00;98584.75;;;13.42;69.40
66547;BME280;53400;50.364;14.874;2023-05-11T06:37:28;98583.69;;;13.48;69.62
66547;BME280;53400;50.364;14.874;2023-05-11T06:39:54;98581.03;;;13.53;68.45
66547;BME280;53400;50.364;14.874;2023-05-11T06:42:20;98579.75;;;13.71;69.04
66547;BME280;53400;50.364;14.874;2023-05-11T06:44:48;98581.66;;;13.96;67.71
66547;BME280;53400;50.364;14.874;2023-05-11T06:47:13;98576.84;;;14.03;68.36
66547;BME280;53400;50.364;14.874;2023-05-11T06:49:41;98580.03;;;13.85;69.45
66547;BME280;53400;50.364;14.874;2023-05-11T06:52:07;98580.59;;;14.02;67.89
66547;BME280;53400;50.364;14.874;2023-05-11T06:54:34;98586.81;;;14.13;67.47
66547;BME280;53400;50.364;14.874;2023-05-11T06:57:03;98583.81;;;14.30;66.78
66547;BME280;53400;50.364;14.874;2023-05-11T06:59:29;98583.03;;;14.34;65.71
66547;BME280;53400;50.364;14.874;2023-05-11T07:01:55;98577.91;;;14.28;67.08
66547;BME280;53400;50.364;14.874;2023-05-11T07:04:21;98575.19;;;14.48;67.86
66547;BME280;53400;50.364;14.874;2023-05-11T07:06:48;98589.47;;;14.69;66.43
66547;BME280;53400;50.364;14.874;2023-05-11T07:09:14;98581.66;;;14.62;65.38
66547;BME280;53400;50.364;14.874;2023-05-11T07:11:40;98578.94;;;14.73;66.30
66547;BME280;53400;50.364;14.874;2023-05-11T07:14:06;98584.03;;;14.89;65.86
66547;BME280;53400;50.364;14.874;2023-05-11T07:16:34;98571.38;;;14.90;64.31
66547;BME280;53400;50.364;14.874;2023-05-11T07:19:03;98586.44;;;15.01;64.21
66547;BME280;53400;50.364;14.874;2023-05-11T07:21:28;98575.03;;;15.20;65.13
66547;BME280;53400;50.364;14.874;2023-05-11T07:23:56;98592.59;;;15.17;64.19
66547;BME280;53400;50.364;14.874;2023-05-11T07:26:22;98580.44;;;15.20;64.27
66547;BME280;53400;50.364;14.874;2023-05-11T07:28:48;98572.34;;;15.20;63.58
66547;BME280;53400;50.364;14.874;2023-05-11T07:31:14;98583.41;;;15.18;64.09
66547;BME280;53400;50.364;14.874;2023-05-11T07:33:40;98580.06;;;15.47;64.37
66547;BME280;53400;50.364;14.874;2023-05-11T07:36:07;98582.44;;;15.53;63.38
66547;BME280;53400;50.364;14.874;2023-05-11T07:38:33;98588.47;;;15.30;64.57
66547;BME280;53400;50.364;14.874;2023-05-11T07:41:00;98579.16;;;15.62;63.86
66547;BME280;53400;50.364;14.874;2023-05-11T07:43:26;98580.16;;;15.76;63.25
66547;BME280;53400;50.364;14.874;2023-05-11T07:45:52;98590.75;;;15.62;64.69
66547;BME280;53400;50.364;14.874;2023-05-11T07:48:18;98583.06;;;15.40;64.04
66547;BME280;53400;50.364;14.874;2023-05-11T07:50:43;98588.06;;;15.67;64.01
66547;BME280;53400;50.364;14.874;2023-05-11T07:53:09;98578.88;;;15.63;63.07
66547;BME280;53400;50.364;14.874;2023-05-11T07:55:36;98581.94;;;15.96;62.80
66547;BME280;53400;50.364;14.874;2023-05-11T07:58:03;98580.28;;;15.50;64.06
66547;BME280;53400;50.364;14.874;2023-05-11T08:00:29;98579.16;;;15.62;64.75
66547;BME280;53400;50.364;14.874;2023-05-11T08:02:55;98580.22;;;15.60;64.34
66547;BME280;53400;50.364;14.874;2023-05-11T08:05:21;98590.22;;;15.65;62.96
66547;BME280;53400;50.364;14.874;2023-05-11T08:07:47;98587.31;;;15.51;63.53
66547;BME280;53400;50.364;14.874;2023-05-11T08:10:12;98590.72;;;15.77;63.34
66547;BME280;53400;50.364;14.874;2023-05-11T08:12:38;98589.84;;;15.82;63.28
66547;BME280;53400;50.364;14.874;2023-05-11T08:15:07;98590.53;;;15.58;63.20
66547;BME280;53400;50.364;14.874;2023-05-11T08:17:33;98594.66;;;15.95;62.52
66547;BME280;53400;50.364;14.874;2023-05-11T08:19:59;98584.34;;;15.97;62.79
66547;BME280;53400;50.364;14.874;2023-05-11T08:22:25;98582.81;;;15.86;62.88
66547;BME280;53400;50.364;14.874;2023-05-11T08:24:51;98585.94;;;16.03;63.59
66547;BME280;53400;50.364;14.874;2023-05-11T08:27:17;98596.56;;;16.29;61.72
66547;BME280;53400;50.364;14.874;2023-05-11T08:29:43;98582.91;;;16.44;61.21
66547;BME280;53400;50.364;14.874;2023-05-11T08:32:10;98590.91;;;16.55;61.50
66547;BME280;53400;50.364;14.874;2023-05-11T08:34:36;98590.06;;;16.59;61.45
66547;BME280;53400;50.364;14.874;2023-05-11T08:37:02;98595.22;;;17.14;60.64
66547;BME280;53400;50.364;14.874;2023-05-11T08:39:28;98585.19;;;16.90;59.36
66547;BME280;53400;50.364;14.874;2023-05-11T08:41:56;98582.97;;;16.68;60.59
66547;BME280;53400;50.364;14.874;2023-05-11T08:44:22;98585.41;;;17.18;60.15
66547;BME280;53400;50.364;14.874;2023-05-11T08:46:52;98584.13;;;17.34;59.37
66547;BME280;53400;50.364;14.874;2023-05-11T08:49:19;98586.84;;;17.34;59.38
66547;BME280;53400;50.364;14.874;2023-05-11T08:51:46;98578.38;;;17.41;58.19
66547;BME280;53400;50.364;14.874;2023-05-11T08:54:11;98577.44;;;17.70;58.20
66547;BME280;53400;50.364;14.874;2023-05-11T08:56:40;98591.56;;;17.48;58.67
66547;BME280;53400;50.364;14.874;2023-05-11T08:59:06;98580.84;;;17.37;57.95
66547;BME280;53400;50.364;14.874;2023-05-11T09:01:34;98586.00;;;17.58;58.40
66547;BME280;53400;50.364;14.874;2023-05-11T09:04:00;98573.25;;;17.39;57.54
66547;BME280;53400;50.364;14.874;2023-05-11T09:06:29;98583.03;;;17.78;56.35
66547;BME280;53400;50.364;14.874;2023-05-11T09:08:56;98571.75;;;18.09;56.29
66547;BME280;53400;50.364;14.874;2023-05-11T09:11:23;98575.06;;;18.20;56.12
66547;BME280;53400;50.364;14.874;2023-05-11T09:13:49;98576.78;;;18.62;54.08
66547;BME280;53400;50.364;14.874;2023-05-11T09:16:16;98570.91;;;18.74;54.01
66547;BME280;53400;50.364;14.874;2023-05-11T09:18:49;98564.31;;;18.94;53.57
66547;BME280;53400;50.364;14.874;2023-05-11T09:21:15;98566.06;;;18.71;53.53
66547;BME280;53400;50.364;14.874;2023-05-11T09:23:43;98563.94;;;18.54;53.81
66547;BME280;53400;50.364;14.874;2023-05-11T09:26:13;98561.56;;;18.66;53.23
66547;BME280;53400;50.364;14.874;2023-05-11T09:28:47;98555.59;;;18.50;52.57
66547;BME280;53400;50.364;14.874;2023-05-11T09:31:33;98569.84;;;18.75;52.81
66547;BME280;53400;50.364;14.874;2023-05-11T09:34:11;98562.22;;;18.91;53.01
66547;BME280;53400;50.364;14.874;2023-05-11T09:36:38;98562.00;;;19.01;52.40
66547;BME280;53400;50.364;14.874;2023-05-11T09:39:05;98570.88;;;19.20;52.45
66547;BME280;53400;50.364;14.874;2023-05-11T09:41:32;98572.56;;;19.16;50.67
66547;BME280;53400;50.364;14.874;2023-05-11T09:44:05;98567.06;;;18.47;50.47
66547;BME280;53400;50.364;14.874;2023-05-11T09:46:34;98564.75;;;18.54;49.90
66547;BME280;53400;50.364;14.874;2023-05-11T09:49:00;98562.75;;;18.60;48.17
66547;BME280;53400;50.364;14.874;2023-05-11T09:51:30;98571.13;;;18.77;49.25
66547;BME280;53400;50.364;14.874;2023-05-11T09:53:57;98573.34;;;18.75;49.11
66547;BME280;53400;50.364;14.874;2023-05-11T09:56:42;98565.22;;;19.03;50.15
66547;BME280;53400;50.364;14.874;2023-05-11T09:59:08;98564.41;;;18.89;49.66
66547;BME280;53400;50.364;14.874;2023-05-11T10:01:34;98559.19;;;18.92;51.29
66547;BME280;53400;50.364;14.874;2023-05-11T10:04:02;98563.09;;;18.40;49.64
66547;BME280;53400;50.364;14.874;2023-05-11T10:06:45;98551.84;;;18.32;48.91
66547;BME280;53400;50.364;14.874;2023-05-11T10:09:12;98562.09;;;18.36;47.41
66547;BME280;53400;50.364;14.874;2023-05-11T10:11:43;98558.00;;;18.52;47.32
66547;BME280;53400;50.364;14.874;2023-05-11T10:14:11;98563.47;;;18.66;47.91
66547;BME280;53400;50.364;14.874;2023-05-11T10:16:39;98552.91;;;18.64;47.75
66547;BME280;53400;50.364;14.874;2023-05-11T10:19:06;98551.34;;;18.77;46.93
66547;BME280;53400;50.364;14.874;2023-05-11T10:21:32;98552.44;;;18.76;47.65
66547;BME280;53400;50.364;14.874;2023-05-11T10:23:59;98545.13;;;18.90;45.74
66547;BME280;53400;50.364;14.874;2023-05-11T10:26:26;98539.13;;;19.57;44.43
66547;BME280;53400;50.364;14.874;2023-05-11T10:28:54;98535.47;;;19.76;43.28
66547;BME280;53400;50.364;14.874;2023-05-11T10:31:21;98542.06;;;19.83;45.98
66547;BME280;53400;50.364;14.874;2023-05-11T10:33:49;98542.13;;;19.56;44.66
66547;BME280;53400;50.364;14.874;2023-05-11T10:36:17;98534.66;;;19.75;44.97
66547;BME280;53400;50.364;14.874;2023-05-11T10:38:42;98536.44;;;19.80;43.59
66547;BME280;53400;50.364;14.874;2023-05-11T10:41:19;98532.56;;;19.58;42.10
66547;BME280;53400;50.364;14.874;2023-05-11T10:44:08;98535.66;;;19.79;42.00
66547;BME280;53400;50.364;14.874;2023-05-11T10:46:55;98537.44;;;19.84;41.07
66547;BME280;53400;50.364;14.874;2023-05-11T10:49:41;98530.09;;;20.07;43.35
66547;BME280;53400;50.364;14.874;2023-05-11T10:55:15;98534.06;;;19.14;42.94
66547;BME280;53400;50.364;14.874;2023-05-11T10:57:57;98531.59;;;19.40;43.29
66547;BME280;53400;50.364;14.874;2023-05-11T11:00:57;98527.31;;;18.98;43.00
66547;BME280;53400;50.364;14.874;2023-05-11T11:03:30;98525.13;;;19.00;44.87
66547;BME280;53400;50.364;14.874;2023-05-11T11:05:56;98533.94;;;19.19;44.13
66547;BME280;53400;50.364;14.874;2023-05-11T11:08:23;98536.59;;;19.47;43.48
66547;BME280;53400;50.364;14.874;2023-05-11T11:10:49;98535.94;;;19.14;44.07
66547;BME280;53400;50.364;14.874;2023-05-11T11:13:17;98535.63;;;18.60;43.55
66547;BME280;53400;50.364;14.874;2023-05-11T11:16:10;98525.22;;;18.81;43.79
66547;BME280;53400;50.364;14.874;2023-05-11T11:18:36;98533.75;;;18.88;42.83
66547;BME280;53400;50.364;14.874;2023-05-11T11:21:02;98533.84;;;18.69;43.65
66547;BME280;53400;50.364;14.874;2023-05-11T11:23:42;98521.75;;;18.62;44.77
66547;BME280;53400;50.364;14.874;2023-05-11T11:26:09;98532.66;;;18.75;43.61
66547;BME280;53400;50.364;14.874;2023-05-11T11:29:10;98522.38;;;18.72;43.15
66547;BME280;53400;50.364;14.874;2023-05-11T11:31:38;98533.75;;;18.74;43.50
66547;BME280;53400;50.364;14.874;2023-05-11T11:34:33;98529.88;;;18.48;44.68
66547;BME280;53400;50.364;14.874;2023-05-11T11:37:02;98532.13;;;18.60;44.05
66547;BME280;53400;50.364;14.874;2023-05-11T11:39:47;98539.06;;;19.07;44.07
66547;BME280;53400;50.364;14.874;2023-05-11T11:42:15;98537.88;;;18.86;43.84
66547;BME280;53400;50.364;14.874;2023-05-11T11:44:43;98540.47;;;18.63;43.28
66547;BME280;53400;50.364;14.874;2023-05-11T11:47:11;98542.88;;;19.20;43.08
66547;BME280;53400;50.364;14.874;2023-05-11T11:49:38;98540.91;;;19.12;41.45
66547;BME280;53400;50.364;14.874;2023-05-11T11:52:04;98540.50;;;19.18;43.65
66547;BME280;53400;50.364;14.874;2023-05-11T11:54:36;98547.41;;;19.24;43.33
66547;BME280;53400;50.364;14.874;2023-05-11T11:57:03;98546.88;;;19.50;42.68
66547;BME280;53400;50.364;14.874;2023-05-11T11:59:29;98549.47;;;19.55;41.85
66547;BME280;53400;50.364;14.874;2023-05-11T12:02:07;98549.16;;;19.57;41.53
66547;BME280;53400;50.364;14.874;2023-05-11T12:04:47;98552.19;;;19.41;41.99
66547;BME280;53400;50.364;14.874;2023-05-11T12:07:18;98549.94;;;19.07;42.25
66547;BME280;53400;50.364;14.874;2023-05-11T12:09:46;98549.03;;;18.98;42.63
66547;BME280;53400;50.364;14.874;2023-05-11T12:12:12;98542.03;;;19.47;42.26
66547;BME280;53400;50.364;14.874;2023-05-11T12:14:41;98546.59;;;19.88;40.59
66547;BME280;53400;50.364;14.874;2023-05-11T12:17:13;98538.63;;;19.91;42.78
66547;BME280;53400;50.364;14.874;2023-05-11T12:19:42;98546.94;;;20.17;39.56
66547;BME280;53400;50.364;14.874;2023-05-11T12:22:10;98545.84;;;20.19;39.34
66547;BME280;53400;50.364;14.874;2023-05-11T12:24:39;98547.66;;;20.01;40.10
66547;BME280;53400;50.364;14.874;2023-05-11T12:27:05;98544.34;;;19.54;41.53
66547;BME280;53400;50.364;14.874;2023-05-11T12:29:31;98538.63;;;19.91;40.17
66547;BME280;53400;50.364;14.874;2023-05-11T12:31:58;98536.97;;;19.82;39.70
66547;BME280;53400;50.364;14.874;2023-05-11T12:34:24;98537.19;;;19.71;41.00
66547;BME280;53400;50.364;14.874;2023-05-11T12:36:52;98539.31;;;19.47;41.35
66547;BME280;53400;50.364;14.874;2023-05-11T12:39:20;98535.09;;;19.41;43.27
66547;BME280;53400;50.364;14.874;2023-05-11T12:41:47;98526.41;;;19.16;41.72
66547;BME280;53400;50.364;14.874;2023-05-11T12:44:15;98531.16;;;19.61;42.27
66547;BME280;53400;50.364;14.874;2023-05-11T12:46:42;98524.72;;;19.93;41.78
66547;BME280;53400;50.364;14.874;2023-05-11T12:49:08;98519.59;;;19.55;40.19
66547;BME280;53400;50.364;14.874;2023-05-11T12:51:48;98531.94;;;19.75;42.47
66547;BME280;53400;50.364;14.874;2023-05-11T12:54:27;98521.56;;;19.77;42.45
66547;BME280;53400;50.364;14.874;2023-05-11T12:56:53;98529.22;;;19.98;42.02
66547;BME280;53400;50.364;14.874;2023-05-11T12:59:24;98523.13;;;19.92;41.68